sensor_id;sensor_type;location;lat;lon;timestamp;P1;durP1;ratioP1;P2;durP2;ratioP2
10801;SDS011;5453;50.852;7.102;2022-08-01T00:00:35;1.63;;;1.13;;
10801;SDS011;5453;50.852;7.102;2022-08-01T00:03:08;1.90;;;0.88;;
10801;SDS011;5453;50.852;7.102;2022-08-01T00:05:41;2.70;;;1.10;;
10801;SDS011;5453;50.852;7.102;2022-08-01T00:08:14;2.15;;;1.30;;
10801;SDS011;5453;50.852;7.102;2022-08-01T00:10:46;2.75;;;0.90;;
10801;SDS011;5453;50.852;7.102;2022-08-01T00:13:18;1.48;;;1.17;;
10801;SDS011;5453;50.852;7.102;2022-08-01T00:15:50;1.80;;;1.02;;
10801;SDS011;5453;50.852;7.102;2022-08-01T00:18:22;1.35;;;0.90;;
10801;SDS011;5453;50.852;7.102;2022-08-01T00:20:56;2.55;;;1.15;;
10801;SDS011;5453;50.852;7.102;2022-08-01T00:23:28;1.20;;;1.02;;
10801;SDS011;5453;50.852;7.102;2022-08-01T00:26:00;1.38;;;1.05;;
10801;SDS011;5453;50.852;7.102;2022-08-01T00:28:33;1.95;;;1.05;;
10801;SDS011;5453;50.852;7.102;2022-08-01T00:31:05;2.85;;;0.85;;
10801;SDS011;5453;50.852;7.102;2022-08-01T00:33:37;2.33;;;1.00;;
10801;SDS011;5453;50.852;7.102;2022-08-01T00:36:11;2.15;;;1.10;;
10801;SDS011;5453;50.852;7.102;2022-08-01T00:38:43;2.58;;;0.98;;
10801;SDS011;5453;50.852;7.102;2022-08-01T00:41:15;3.40;;;1.45;;
10801;SDS011;5453;50.852;7.102;2022-08-01T00:43:47;1.77;;;1.15;;
10801;SDS011;5453;50.852;7.102;2022-08-01T00:46:19;2.40;;;1.00;;
10801;SDS011;5453;50.852;7.102;2022-08-01T00:48:51;1.80;;;1.08;;
10801;SDS011;5453;50.852;7.102;2022-08-01T00:51:26;1.42;;;1.20;;
10801;SDS011;5453;50.852;7.102;2022-08-01T00:53:58;3.65;;;1.40;;
10801;SDS011;5453;50.852;7.102;2022-08-01T00:56:31;1.23;;;1.00;;
10801;SDS011;5453;50.852;7.102;2022-08-01T00:59:03;1.90;;;1.20;;
10801;SDS011;5453;50.852;7.102;2022-08-01T01:01:36;2.47;;;1.23;;
10801;SDS011;5453;50.852;7.102;2022-08-01T01:04:09;1.95;;;1.10;;
10801;SDS011;5453;50.852;7.102;2022-08-01T01:06:44;1.75;;;0.93;;
10801;SDS011;5453;50.852;7.102;2022-08-01T01:09:32;1.63;;;1.27;;
10801;SDS011;5453;50.852;7.102;2022-08-01T01:12:12;2.10;;;1.20;;
10801;SDS011;5453;50.852;7.102;2022-08-01T01:14:53;2.70;;;1.10;;
10801;SDS011;5453;50.852;7.102;2022-08-01T01:17:35;4.63;;;1.10;;
10801;SDS011;5453;50.852;7.102;2022-08-01T01:20:13;1.40;;;1.05;;
10801;SDS011;5453;50.852;7.102;2022-08-01T01:22:50;1.58;;;1.20;;
10801;SDS011;5453;50.852;7.102;2022-08-01T01:25:46;2.03;;;1.20;;
10801;SDS011;5453;50.852;7.102;2022-08-01T01:28:33;2.72;;;1.75;;
10801;SDS011;5453;50.852;7.102;2022-08-01T01:31:18;1.45;;;1.27;;
10801;SDS011;5453;50.852;7.102;2022-08-01T01:33:53;2.55;;;1.25;;
10801;SDS011;5453;50.852;7.102;2022-08-01T01:36:26;1.30;;;1.20;;
10801;SDS011;5453;50.852;7.102;2022-08-01T01:39:00;1.67;;;1.30;;
10801;SDS011;5453;50.852;7.102;2022-08-01T01:41:32;1.85;;;1.20;;
10801;SDS011;5453;50.852;7.102;2022-08-01T01:44:08;2.50;;;1.40;;
10801;SDS011;5453;50.852;7.102;2022-08-01T01:46:43;2.58;;;1.42;;
10801;SDS011;5453;50.852;7.102;2022-08-01T01:49:16;2.05;;;1.30;;
10801;SDS011;5453;50.852;7.102;2022-08-01T01:51:54;3.42;;;1.40;;
10801;SDS011;5453;50.852;7.102;2022-08-01T01:54:28;1.63;;;1.40;;
10801;SDS011;5453;50.852;7.102;2022-08-01T01:57:03;2.22;;;1.30;;
10801;SDS011;5453;50.852;7.102;2022-08-01T01:59:38;2.20;;;1.38;;
10801;SDS011;5453;50.852;7.102;2022-08-01T02:02:13;2.47;;;1.40;;
10801;SDS011;5453;50.852;7.102;2022-08-01T02:04:47;3.05;;;1.70;;
10801;SDS011;5453;50.852;7.102;2022-08-01T02:07:22;2.70;;;1.52;;
10801;SDS011;5453;50.852;7.102;2022-08-01T02:09:56;2.72;;;1.75;;
10801;SDS011;5453;50.852;7.102;2022-08-01T02:12:30;1.65;;;1.40;;
10801;SDS011;5453;50.852;7.102;2022-08-01T02:15:08;3.17;;;1.70;;
10801;SDS011;5453;50.852;7.102;2022-08-01T02:17:45;2.25;;;1.38;;
10801;SDS011;5453;50.852;7.102;2022-08-01T02:20:21;2.22;;;1.35;;
10801;SDS011;5453;50.852;7.102;2022-08-01T02:22:53;1.83;;;1.33;;
10801;SDS011;5453;50.852;7.102;2022-08-01T02:25:32;2.42;;;1.50;;
10801;SDS011;5453;50.852;7.102;2022-08-01T02:28:10;2.50;;;1.38;;
10801;SDS011;5453;50.852;7.102;2022-08-01T02:30:47;2.17;;;1.50;;
10801;SDS011;5453;50.852;7.102;2022-08-01T02:33:23;1.73;;;1.23;;
10801;SDS011;5453;50.852;7.102;2022-08-01T02:36:02;2.38;;;1.40;;
10801;SDS011;5453;50.852;7.102;2022-08-01T02:38:37;4.32;;;1.70;;
10801;SDS011;5453;50.852;7.102;2022-08-01T02:41:13;3.08;;;1.80;;
10801;SDS011;5453;50.852;7.102;2022-08-01T02:43:53;2.83;;;1.75;;
10801;SDS011;5453;50.852;7.102;2022-08-01T02:46:31;2.40;;;1.58;;
10801;SDS011;5453;50.852;7.102;2022-08-01T02:49:09;2.60;;;1.60;;
10801;SDS011;5453;50.852;7.102;2022-08-01T02:51:43;3.50;;;1.50;;
10801;SDS011;5453;50.852;7.102;2022-08-01T02:54:17;2.25;;;1.50;;
10801;SDS011;5453;50.852;7.102;2022-08-01T02:56:52;3.10;;;1.85;;
10801;SDS011;5453;50.852;7.102;2022-08-01T02:59:26;2.80;;;1.50;;
10801;SDS011;5453;50.852;7.102;2022-08-01T03:02:01;3.08;;;1.52;;
10801;SDS011;5453;50.852;7.102;2022-08-01T03:04:37;2.25;;;1.50;;
10801;SDS011;5453;50.852;7.102;2022-08-01T03:07:11;4.32;;;1.70;;
10801;SDS011;5453;50.852;7.102;2022-08-01T03:09:45;3.50;;;1.83;;
10801;SDS011;5453;50.852;7.102;2022-08-01T03:14:54;3.67;;;1.70;;
10801;SDS011;5453;50.852;7.102;2022-08-01T03:17:28;4.15;;;2.20;;
10801;SDS011;5453;50.852;7.102;2022-08-01T03:20:03;2.97;;;1.80;;
10801;SDS011;5453;50.852;7.102;2022-08-01T03:22:38;2.00;;;1.60;;
10801;SDS011;5453;50.852;7.102;2022-08-01T03:25:12;3.00;;;1.90;;
10801;SDS011;5453;50.852;7.102;2022-08-01T03:30:23;2.90;;;1.77;;
10801;SDS011;5453;50.852;7.102;2022-08-01T03:32:56;3.42;;;1.73;;
10801;SDS011;5453;50.852;7.102;2022-08-01T03:35:32;4.47;;;1.98;;
10801;SDS011;5453;50.852;7.102;2022-08-01T03:38:09;4.10;;;2.33;;
10801;SDS011;5453;50.852;7.102;2022-08-01T03:40:45;4.13;;;1.98;;
10801;SDS011;5453;50.852;7.102;2022-08-01T03:43:22;4.32;;;2.25;;
10801;SDS011;5453;50.852;7.102;2022-08-01T03:46:03;2.97;;;1.67;;
10801;SDS011;5453;50.852;7.102;2022-08-01T03:48:39;4.07;;;2.22;;
10801;SDS011;5453;50.852;7.102;2022-08-01T03:51:16;4.07;;;2.10;;
10801;SDS011;5453;50.852;7.102;2022-08-01T03:53:50;2.95;;;2.10;;
10801;SDS011;5453;50.852;7.102;2022-08-01T03:56:25;3.75;;;2.10;;
10801;SDS011;5453;50.852;7.102;2022-08-01T03:59:00;3.22;;;2.22;;
10801;SDS011;5453;50.852;7.102;2022-08-01T04:01:35;3.90;;;2.40;;
10801;SDS011;5453;50.852;7.102;2022-08-01T04:04:08;4.70;;;2.22;;
10801;SDS011;5453;50.852;7.102;2022-08-01T04:06:42;3.42;;;1.95;;
10801;SDS011;5453;50.852;7.102;2022-08-01T04:09:15;5.18;;;2.35;;
10801;SDS011;5453;50.852;7.102;2022-08-01T04:11:47;5.95;;;2.20;;
10801;SDS011;5453;50.852;7.102;2022-08-01T04:14:20;3.67;;;2.03;;
10801;SDS011;5453;50.852;7.102;2022-08-01T04:16:52;3.53;;;1.92;;
10801;SDS011;5453;50.852;7.102;2022-08-01T04:19:24;2.20;;;1.70;;
10801;SDS011;5453;50.852;7.102;2022-08-01T04:21:58;4.90;;;2.28;;
10801;SDS011;5453;50.852;7.102;2022-08-01T04:24:32;5.00;;;2.53;;
10801;SDS011;5453;50.852;7.102;2022-08-01T04:27:08;5.47;;;2.30;;
10801;SDS011;5453;50.852;7.102;2022-08-01T04:29:44;3.50;;;2.10;;
10801;SDS011;5453;50.852;7.102;2022-08-01T04:32:20;4.47;;;1.98;;
10801;SDS011;5453;50.852;7.102;2022-08-01T04:34:53;2.45;;;1.73;;
10801;SDS011;5453;50.852;7.102;2022-08-01T04:37:29;3.95;;;2.13;;
10801;SDS011;5453;50.852;7.102;2022-08-01T04:42:36;3.35;;;2.05;;
10801;SDS011;5453;50.852;7.102;2022-08-01T04:45:08;4.03;;;1.90;;
10801;SDS011;5453;50.852;7.102;2022-08-01T04:47:42;5.10;;;2.05;;
10801;SDS011;5453;50.852;7.102;2022-08-01T04:50:15;3.72;;;2.30;;
10801;SDS011;5453;50.852;7.102;2022-08-01T04:52:49;5.13;;;2.42;;
10801;SDS011;5453;50.852;7.102;2022-08-01T04:55:21;3.78;;;2.63;;
10801;SDS011;5453;50.852;7.102;2022-08-01T04:57:53;5.55;;;2.50;;
10801;SDS011;5453;50.852;7.102;2022-08-01T05:00:26;6.53;;;2.47;;
10801;SDS011;5453;50.852;7.102;2022-08-01T05:02:58;4.72;;;2.58;;
10801;SDS011;5453;50.852;7.102;2022-08-01T05:05:30;5.72;;;2.83;;
10801;SDS011;5453;50.852;7.102;2022-08-01T05:08:04;5.13;;;3.00;;
10801;SDS011;5453;50.852;7.102;2022-08-01T05:10:37;4.50;;;2.45;;
10801;SDS011;5453;50.852;7.102;2022-08-01T05:13:09;5.72;;;2.50;;
10801;SDS011;5453;50.852;7.102;2022-08-01T05:15:41;5.75;;;2.88;;
10801;SDS011;5453;50.852;7.102;2022-08-01T05:18:13;5.95;;;3.10;;
10801;SDS011;5453;50.852;7.102;2022-08-01T05:20:46;5.72;;;3.30;;
10801;SDS011;5453;50.852;7.102;2022-08-01T05:23:19;4.78;;;3.00;;
10801;SDS011;5453;50.852;7.102;2022-08-01T05:25:52;6.38;;;3.90;;
10801;SDS011;5453;50.852;7.102;2022-08-01T05:28:24;8.05;;;4.10;;
10801;SDS011;5453;50.852;7.102;2022-08-01T05:30:56;8.68;;;4.00;;
10801;SDS011;5453;50.852;7.102;2022-08-01T05:33:28;6.85;;;3.63;;
10801;SDS011;5453;50.852;7.102;2022-08-01T05:36:00;6.57;;;3.97;;
10801;SDS011;5453;50.852;7.102;2022-08-01T05:38:34;6.55;;;3.78;;
10801;SDS011;5453;50.852;7.102;2022-08-01T05:41:06;6.03;;;3.72;;
10801;SDS011;5453;50.852;7.102;2022-08-01T05:43:38;6.18;;;3.88;;
10801;SDS011;5453;50.852;7.102;2022-08-01T05:46:11;6.30;;;3.90;;
10801;SDS011;5453;50.852;7.102;2022-08-01T05:48:43;7.13;;;3.78;;
10801;SDS011;5453;50.852;7.102;2022-08-01T05:51:15;8.20;;;3.70;;
10801;SDS011;5453;50.852;7.102;2022-08-01T05:53:49;8.25;;;4.30;;
10801;SDS011;5453;50.852;7.102;2022-08-01T05:56:21;8.35;;;4.50;;
10801;SDS011;5453;50.852;7.102;2022-08-01T05:58:54;7.80;;;4.78;;
10801;SDS011;5453;50.852;7.102;2022-08-01T06:01:26;8.05;;;4.55;;
10801;SDS011;5453;50.852;7.102;2022-08-01T06:03:58;8.35;;;4.30;;
10801;SDS011;5453;50.852;7.102;2022-08-01T06:06:30;10.80;;;5.70;;
10801;SDS011;5453;50.852;7.102;2022-08-01T06:09:04;10.93;;;5.68;;
10801;SDS011;5453;50.852;7.102;2022-08-01T06:11:36;10.13;;;5.20;;
10801;SDS011;5453;50.852;7.102;2022-08-01T06:14:08;11.77;;;5.70;;
10801;SDS011;5453;50.852;7.102;2022-08-01T06:16:40;10.35;;;5.28;;
10801;SDS011;5453;50.852;7.102;2022-08-01T06:19:13;7.60;;;4.20;;
10801;SDS011;5453;50.852;7.102;2022-08-01T06:21:45;7.47;;;4.30;;
10801;SDS011;5453;50.852;7.102;2022-08-01T06:24:18;7.65;;;4.53;;
10801;SDS011;5453;50.852;7.102;2022-08-01T06:26:52;5.93;;;3.95;;
10801;SDS011;5453;50.852;7.102;2022-08-01T06:29:25;8.50;;;4.28;;
10801;SDS011;5453;50.852;7.102;2022-08-01T06:31:57;8.23;;;4.50;;
10801;SDS011;5453;50.852;7.102;2022-08-01T06:34:29;9.38;;;4.80;;
10801;SDS011;5453;50.852;7.102;2022-08-01T06:37:01;9.38;;;4.50;;
10801;SDS011;5453;50.852;7.102;2022-08-01T06:39:35;8.05;;;4.93;;
10801;SDS011;5453;50.852;7.102;2022-08-01T06:42:07;7.70;;;4.45;;
10801;SDS011;5453;50.852;7.102;2022-08-01T06:44:39;8.38;;;3.63;;
10801;SDS011;5453;50.852;7.102;2022-08-01T06:47:11;8.60;;;4.18;;
10801;SDS011;5453;50.852;7.102;2022-08-01T06:49:44;7.78;;;3.80;;
10801;SDS011;5453;50.852;7.102;2022-08-01T06:52:16;6.90;;;3.97;;
10801;SDS011;5453;50.852;7.102;2022-08-01T06:54:49;5.22;;;3.38;;
10801;SDS011;5453;50.852;7.102;2022-08-01T06:57:22;6.88;;;3.65;;
10801;SDS011;5453;50.852;7.102;2022-08-01T06:59:54;6.88;;;3.80;;
10801;SDS011;5453;50.852;7.102;2022-08-01T07:02:27;7.10;;;3.97;;
10801;SDS011;5453;50.852;7.102;2022-08-01T07:04:59;7.95;;;4.10;;
10801;SDS011;5453;50.852;7.102;2022-08-01T07:07:31;8.55;;;5.00;;
10801;SDS011;5453;50.852;7.102;2022-08-01T07:10:05;8.52;;;4.75;;
10801;SDS011;5453;50.852;7.102;2022-08-01T07:12:39;8.93;;;4.68;;
10801;SDS011;5453;50.852;7.102;2022-08-01T07:15:11;7.05;;;3.67;;
10801;SDS011;5453;50.852;7.102;2022-08-01T07:17:44;5.75;;;3.65;;
10801;SDS011;5453;50.852;7.102;2022-08-01T07:20:16;8.25;;;3.83;;
10801;SDS011;5453;50.852;7.102;2022-08-01T07:22:48;7.57;;;4.00;;
10801;SDS011;5453;50.852;7.102;2022-08-01T07:25:22;7.00;;;4.13;;
10801;SDS011;5453;50.852;7.102;2022-08-01T07:27:54;5.57;;;3.90;;
10801;SDS011;5453;50.852;7.102;2022-08-01T07:30:26;8.32;;;3.67;;
10801;SDS011;5453;50.852;7.102;2022-08-01T07:32:59;7.90;;;4.00;;
10801;SDS011;5453;50.852;7.102;2022-08-01T07:35:31;5.72;;;3.80;;
10801;SDS011;5453;50.852;7.102;2022-08-01T07:38:03;7.00;;;4.00;;
10801;SDS011;5453;50.852;7.102;2022-08-01T07:40:37;6.75;;;3.53;;
10801;SDS011;5453;50.852;7.102;2022-08-01T07:43:09;5.55;;;3.50;;
10801;SDS011;5453;50.852;7.102;2022-08-01T07:45:41;8.05;;;4.05;;
10801;SDS011;5453;50.852;7.102;2022-08-01T07:48:14;7.20;;;4.18;;
10801;SDS011;5453;50.852;7.102;2022-08-01T07:50:46;8.88;;;4.25;;
10801;SDS011;5453;50.852;7.102;2022-08-01T07:53:18;6.93;;;4.05;;
10801;SDS011;5453;50.852;7.102;2022-08-01T07:55:51;8.25;;;4.30;;
10801;SDS011;5453;50.852;7.102;2022-08-01T07:58:24;8.10;;;4.07;;
10801;SDS011;5453;50.852;7.102;2022-08-01T08:00:56;6.53;;;4.03;;
10801;SDS011;5453;50.852;7.102;2022-08-01T08:03:28;6.53;;;4.00;;
10801;SDS011;5453;50.852;7.102;2022-08-01T08:06:00;8.80;;;4.00;;
10801;SDS011;5453;50.852;7.102;2022-08-01T08:08:32;6.28;;;4.07;;
10801;SDS011;5453;50.852;7.102;2022-08-01T08:11:06;6.28;;;3.80;;
10801;SDS011;5453;50.852;7.102;2022-08-01T08:13:38;6.85;;;3.85;;
10801;SDS011;5453;50.852;7.102;2022-08-01T08:16:11;8.43;;;4.10;;
10801;SDS011;5453;50.852;7.102;2022-08-01T08:18:43;6.97;;;4.75;;
10801;SDS011;5453;50.852;7.102;2022-08-01T08:21:15;6.28;;;3.63;;
10801;SDS011;5453;50.852;7.102;2022-08-01T08:23:47;9.35;;;4.35;;
10801;SDS011;5453;50.852;7.102;2022-08-01T08:26:38;6.97;;;4.18;;
10801;SDS011;5453;50.852;7.102;2022-08-01T08:29:10;5.63;;;3.70;;
10801;SDS011;5453;50.852;7.102;2022-08-01T08:31:43;7.32;;;3.78;;
10801;SDS011;5453;50.852;7.102;2022-08-01T08:34:15;5.38;;;3.45;;
10801;SDS011;5453;50.852;7.102;2022-08-01T08:36:48;7.03;;;3.75;;
10801;SDS011;5453;50.852;7.102;2022-08-01T08:39:20;5.40;;;3.60;;
10801;SDS011;5453;50.852;7.102;2022-08-01T08:41:54;5.68;;;3.88;;
10801;SDS011;5453;50.852;7.102;2022-08-01T08:44:28;6.82;;;4.53;;
10801;SDS011;5453;50.852;7.102;2022-08-01T08:47:01;5.50;;;4.28;;
10801;SDS011;5453;50.852;7.102;2022-08-01T08:49:35;6.53;;;4.38;;
10801;SDS011;5453;50.852;7.102;2022-08-01T08:52:08;6.93;;;4.88;;
10801;SDS011;5453;50.852;7.102;2022-08-01T08:54:41;7.65;;;4.55;;
10801;SDS011;5453;50.852;7.102;2022-08-01T08:57:15;5.93;;;4.00;;
10801;SDS011;5453;50.852;7.102;2022-08-01T08:59:50;6.25;;;4.38;;
10801;SDS011;5453;50.852;7.102;2022-08-01T09:02:24;6.32;;;4.38;;
10801;SDS011;5453;50.852;7.102;2022-08-01T09:04:56;5.55;;;3.92;;
10801;SDS011;5453;50.852;7.102;2022-08-01T09:07:29;5.03;;;4.15;;
10801;SDS011;5453;50.852;7.102;2022-08-01T09:10:02;5.82;;;3.97;;
10801;SDS011;5453;50.852;7.102;2022-08-01T09:12:37;5.78;;;4.65;;
10801;SDS011;5453;50.852;7.102;2022-08-01T09:15:10;5.85;;;4.38;;
10801;SDS011;5453;50.852;7.102;2022-08-01T09:17:42;6.53;;;4.53;;
10801;SDS011;5453;50.852;7.102;2022-08-01T09:20:22;5.97;;;4.47;;
10801;SDS011;5453;50.852;7.102;2022-08-01T09:22:55;7.03;;;4.45;;
10801;SDS011;5453;50.852;7.102;2022-08-01T09:25:27;5.10;;;3.92;;
10801;SDS011;5453;50.852;7.102;2022-08-01T09:28:05;6.20;;;4.20;;
10801;SDS011;5453;50.852;7.102;2022-08-01T09:30:38;5.88;;;4.07;;
10801;SDS011;5453;50.852;7.102;2022-08-01T09:33:10;4.95;;;3.63;;
10801;SDS011;5453;50.852;7.102;2022-08-01T09:35:42;5.57;;;3.83;;
10801;SDS011;5453;50.852;7.102;2022-08-01T09:38:16;6.00;;;3.95;;
10801;SDS011;5453;50.852;7.102;2022-08-01T09:40:51;4.93;;;3.97;;
10801;SDS011;5453;50.852;7.102;2022-08-01T09:43:26;7.93;;;4.10;;
10801;SDS011;5453;50.852;7.102;2022-08-01T09:46:04;4.88;;;4.00;;
10801;SDS011;5453;50.852;7.102;2022-08-01T09:48:42;5.00;;;3.85;;
10801;SDS011;5453;50.852;7.102;2022-08-01T09:54:01;6.20;;;3.92;;
10801;SDS011;5453;50.852;7.102;2022-08-01T09:56:36;5.70;;;4.00;;
10801;SDS011;5453;50.852;7.102;2022-08-01T09:59:13;6.05;;;4.53;;
10801;SDS011;5453;50.852;7.102;2022-08-01T10:01:46;5.10;;;3.40;;
10801;SDS011;5453;50.852;7.102;2022-08-01T10:04:20;4.10;;;3.25;;
10801;SDS011;5453;50.852;7.102;2022-08-01T10:07:02;4.35;;;3.08;;
10801;SDS011;5453;50.852;7.102;2022-08-01T10:09:36;4.50;;;3.17;;
10801;SDS011;5453;50.852;7.102;2022-08-01T10:12:09;4.10;;;3.13;;
10801;SDS011;5453;50.852;7.102;2022-08-01T10:14:45;7.80;;;3.70;;
10801;SDS011;5453;50.852;7.102;2022-08-01T10:17:20;4.28;;;3.00;;
10801;SDS011;5453;50.852;7.102;2022-08-01T10:19:55;4.28;;;3.13;;
10801;SDS011;5453;50.852;7.102;2022-08-01T10:22:29;5.00;;;2.97;;
10801;SDS011;5453;50.852;7.102;2022-08-01T10:25:04;3.88;;;2.90;;
10801;SDS011;5453;50.852;7.102;2022-08-01T10:27:37;3.58;;;2.90;;
10801;SDS011;5453;50.852;7.102;2022-08-01T10:30:16;3.95;;;2.58;;
10801;SDS011;5453;50.852;7.102;2022-08-01T10:32:49;4.72;;;2.92;;
10801;SDS011;5453;50.852;7.102;2022-08-01T10:35:23;3.97;;;2.70;;
10801;SDS011;5453;50.852;7.102;2022-08-01T10:37:55;4.25;;;2.97;;
10801;SDS011;5453;50.852;7.102;2022-08-01T10:40:28;3.08;;;2.63;;
10801;SDS011;5453;50.852;7.102;2022-08-01T10:43:01;4.78;;;2.90;;
10801;SDS011;5453;50.852;7.102;2022-08-01T10:45:35;3.85;;;2.80;;
10801;SDS011;5453;50.852;7.102;2022-08-01T10:48:09;3.70;;;2.70;;
10801;SDS011;5453;50.852;7.102;2022-08-01T10:50:48;3.47;;;2.78;;
10801;SDS011;5453;50.852;7.102;2022-08-01T10:53:24;4.20;;;2.70;;
10801;SDS011;5453;50.852;7.102;2022-08-01T10:55:58;3.78;;;2.50;;
10801;SDS011;5453;50.852;7.102;2022-08-01T10:58:33;2.58;;;2.30;;
10801;SDS011;5453;50.852;7.102;2022-08-01T11:04:07;2.97;;;2.33;;
10801;SDS011;5453;50.852;7.102;2022-08-01T11:06:54;3.10;;;;;
10801;SDS011;5453;50.852;7.102;2022-08-01T11:09:41;3.95;;;2.50;;
10801;SDS011;5453;50.852;7.102;2022-08-01T11:12:16;3.45;;;2.20;;
10801;SDS011;5453;50.852;7.102;2022-08-01T11:18:03;2.75;;;2.35;;
10801;SDS011;5453;50.852;7.102;2022-08-01T11:21:04;3.33;;;2.70;;
10801;SDS011;5453;50.852;7.102;2022-08-01T11:23:46;3.83;;;2.70;;
10801;SDS011;5453;50.852;7.102;2022-08-01T11:26:21;4.07;;;2.97;;
10801;SDS011;5453;50.852;7.102;2022-08-01T11:31:46;4.40;;;3.10;;
10801;SDS011;5453;50.852;7.102;2022-08-01T11:34:20;3.75;;;3.08;;
10801;SDS011;5453;50.852;7.102;2022-08-01T11:37:25;3.10;;;2.78;;
10801;SDS011;5453;50.852;7.102;2022-08-01T11:40:16;4.90;;;3.13;;
10801;SDS011;5453;50.852;7.102;2022-08-01T11:43:16;6.13;;;3.20;;
10801;SDS011;5453;50.852;7.102;2022-08-01T11:45:49;3.67;;;2.47;;
10801;SDS011;5453;50.852;7.102;2022-08-01T11:48:25;4.25;;;2.75;;
10801;SDS011;5453;50.852;7.102;2022-08-01T11:50:59;3.58;;;3.00;;
10801;SDS011;5453;50.852;7.102;2022-08-01T11:53:32;4.68;;;3.35;;
10801;SDS011;5453;50.852;7.102;2022-08-01T11:56:04;4.20;;;2.70;;
10801;SDS011;5453;50.852;7.102;2022-08-01T11:58:37;3.38;;;2.92;;
10801;SDS011;5453;50.852;7.102;2022-08-01T12:01:11;3.45;;;2.60;;
10801;SDS011;5453;50.852;7.102;2022-08-01T12:03:44;3.72;;;2.83;;
10801;SDS011;5453;50.852;7.102;2022-08-01T12:06:27;3.00;;;2.47;;
10801;SDS011;5453;50.852;7.102;2022-08-01T12:09:14;4.25;;;2.72;;
10801;SDS011;5453;50.852;7.102;2022-08-01T12:11:50;3.42;;;2.60;;
10801;SDS011;5453;50.852;7.102;2022-08-01T12:14:23;4.00;;;2.22;;
10801;SDS011;5453;50.852;7.102;2022-08-01T12:16:56;4.43;;;2.80;;
10801;SDS011;5453;50.852;7.102;2022-08-01T12:19:29;3.28;;;2.45;;
10801;SDS011;5453;50.852;7.102;2022-08-01T12:22:09;3.42;;;2.53;;
10801;SDS011;5453;50.852;7.102;2022-08-01T12:24:43;2.85;;;2.08;;
10801;SDS011;5453;50.852;7.102;2022-08-01T12:27:23;3.45;;;2.30;;
10801;SDS011;5453;50.852;7.102;2022-08-01T12:29:57;3.42;;;2.10;;
10801;SDS011;5453;50.852;7.102;2022-08-01T12:32:31;3.08;;;2.03;;
10801;SDS011;5453;50.852;7.102;2022-08-01T12:35:06;4.35;;;3.10;;
10801;SDS011;5453;50.852;7.102;2022-08-01T12:37:43;4.05;;;2.92;;
10801;SDS011;5453;50.852;7.102;2022-08-01T12:40:17;3.88;;;2.78;;
10801;SDS011;5453;50.852;7.102;2022-08-01T12:42:53;4.22;;;2.92;;
10801;SDS011;5453;50.852;7.102;2022-08-01T12:45:28;4.97;;;2.67;;
10801;SDS011;5453;50.852;7.102;2022-08-01T12:48:06;3.20;;;2.40;;
10801;SDS011;5453;50.852;7.102;2022-08-01T12:50:42;3.92;;;2.20;;
10801;SDS011;5453;50.852;7.102;2022-08-01T12:53:18;2.00;;;1.70;;
10801;SDS011;5453;50.852;7.102;2022-08-01T12:55:52;3.90;;;2.03;;
10801;SDS011;5453;50.852;7.102;2022-08-01T12:58:30;2.80;;;2.00;;
10801;SDS011;5453;50.852;7.102;2022-08-01T13:01:04;2.42;;;1.80;;
10801;SDS011;5453;50.852;7.102;2022-08-01T13:03:37;3.47;;;2.03;;
10801;SDS011;5453;50.852;7.102;2022-08-01T13:06:11;3.05;;;1.70;;
10801;SDS011;5453;50.852;7.102;2022-08-01T13:08:46;2.83;;;2.15;;
10801;SDS011;5453;50.852;7.102;2022-08-01T13:11:18;2.85;;;2.10;;
10801;SDS011;5453;50.852;7.102;2022-08-01T13:13:51;3.30;;;1.92;;
10801;SDS011;5453;50.852;7.102;2022-08-01T13:16:24;2.53;;;1.92;;
10801;SDS011;5453;50.852;7.102;2022-08-01T13:18:57;2.78;;;1.98;;
10801;SDS011;5453;50.852;7.102;2022-08-01T13:21:29;4.22;;;1.80;;
10801;SDS011;5453;50.852;7.102;2022-08-01T13:24:04;4.43;;;2.17;;
10801;SDS011;5453;50.852;7.102;2022-08-01T13:26:41;3.47;;;1.98;;
10801;SDS011;5453;50.852;7.102;2022-08-01T13:29:15;3.00;;;1.85;;
10801;SDS011;5453;50.852;7.102;2022-08-01T13:31:49;3.40;;;1.80;;
10801;SDS011;5453;50.852;7.102;2022-08-01T13:34:29;3.80;;;2.20;;
10801;SDS011;5453;50.852;7.102;2022-08-01T13:37:02;3.17;;;1.90;;
10801;SDS011;5453;50.852;7.102;2022-08-01T13:39:39;3.03;;;1.98;;
10801;SDS011;5453;50.852;7.102;2022-08-01T13:42:16;3.22;;;2.10;;
10801;SDS011;5453;50.852;7.102;2022-08-01T13:44:48;4.25;;;2.33;;
10801;SDS011;5453;50.852;7.102;2022-08-01T13:47:20;2.90;;;1.90;;
10801;SDS011;5453;50.852;7.102;2022-08-01T13:49:52;2.33;;;1.83;;
10801;SDS011;5453;50.852;7.102;2022-08-01T13:52:24;3.38;;;2.10;;
10801;SDS011;5453;50.852;7.102;2022-08-01T13:54:57;3.65;;;1.90;;
10801;SDS011;5453;50.852;7.102;2022-08-01T13:57:31;2.45;;;1.73;;
10801;SDS011;5453;50.852;7.102;2022-08-01T14:00:04;4.70;;;1.70;;
10801;SDS011;5453;50.852;7.102;2022-08-01T14:02:45;2.17;;;1.80;;
10801;SDS011;5453;50.852;7.102;2022-08-01T14:05:17;2.25;;;1.50;;
10801;SDS011;5453;50.852;7.102;2022-08-01T14:07:49;2.17;;;1.42;;
10801;SDS011;5453;50.852;7.102;2022-08-01T14:10:23;2.80;;;1.50;;
10801;SDS011;5453;50.852;7.102;2022-08-01T14:12:55;1.52;;;1.23;;
10801;SDS011;5453;50.852;7.102;2022-08-01T14:15:29;1.85;;;1.40;;
10801;SDS011;5453;50.852;7.102;2022-08-01T14:20:36;2.40;;;1.30;;
10801;SDS011;5453;50.852;7.102;2022-08-01T14:23:09;2.63;;;1.50;;
10801;SDS011;5453;50.852;7.102;2022-08-01T14:25:43;2.45;;;1.40;;
10801;SDS011;5453;50.852;7.102;2022-08-01T14:28:16;2.72;;;1.10;;
10801;SDS011;5453;50.852;7.102;2022-08-01T14:30:48;2.13;;;1.30;;
10801;SDS011;5453;50.852;7.102;2022-08-01T14:33:21;1.77;;;1.20;;
10801;SDS011;5453;50.852;7.102;2022-08-01T14:35:54;1.20;;;1.00;;
10801;SDS011;5453;50.852;7.102;2022-08-01T14:38:27;2.05;;;1.40;;
10801;SDS011;5453;50.852;7.102;2022-08-01T14:41:01;1.60;;;1.17;;
10801;SDS011;5453;50.852;7.102;2022-08-01T14:43:33;1.45;;;1.20;;
10801;SDS011;5453;50.852;7.102;2022-08-01T14:46:06;2.10;;;1.20;;
10801;SDS011;5453;50.852;7.102;2022-08-01T14:48:40;2.00;;;1.20;;
10801;SDS011;5453;50.852;7.102;2022-08-01T14:51:12;1.33;;;1.05;;
10801;SDS011;5453;50.852;7.102;2022-08-01T14:53:45;2.40;;;1.00;;
10801;SDS011;5453;50.852;7.102;2022-08-01T14:56:19;1.65;;;1.15;;
10801;SDS011;5453;50.852;7.102;2022-08-01T14:58:51;1.65;;;1.30;;
10801;SDS011;5453;50.852;7.102;2022-08-01T15:01:24;1.95;;;1.13;;
10801;SDS011;5453;50.852;7.102;2022-08-01T15:03:56;3.90;;;1.30;;
10801;SDS011;5453;50.852;7.102;2022-08-01T15:06:28;2.03;;;1.30;;
10801;SDS011;5453;50.852;7.102;2022-08-01T15:09:00;2.63;;;1.23;;
10801;SDS011;5453;50.852;7.102;2022-08-01T15:11:34;1.60;;;1.00;;
10801;SDS011;5453;50.852;7.102;2022-08-01T15:14:06;1.35;;;1.17;;
10801;SDS011;5453;50.852;7.102;2022-08-01T15:16:56;1.63;;;1.13;;
10801;SDS011;5453;50.852;7.102;2022-08-01T15:19:28;1.67;;;1.10;;
10801;SDS011;5453;50.852;7.102;2022-08-01T15:22:00;1.80;;;1.10;;
10801;SDS011;5453;50.852;7.102;2022-08-01T15:24:32;1.30;;;1.00;;
10801;SDS011;5453;50.852;7.102;2022-08-01T15:27:06;1.08;;;0.95;;
10801;SDS011;5453;50.852;7.102;2022-08-01T15:29:39;1.00;;;0.80;;
10801;SDS011;5453;50.852;7.102;2022-08-01T15:32:11;1.75;;;1.05;;
10801;SDS011;5453;50.852;7.102;2022-08-01T15:34:44;1.08;;;0.98;;
10801;SDS011;5453;50.852;7.102;2022-08-01T15:37:16;2.10;;;1.10;;
10801;SDS011;5453;50.852;7.102;2022-08-01T15:39:49;2.58;;;0.98;;
10801;SDS011;5453;50.852;7.102;2022-08-01T15:42:22;1.15;;;1.02;;
10801;SDS011;5453;50.852;7.102;2022-08-01T15:44:54;1.92;;;1.00;;
10801;SDS011;5453;50.852;7.102;2022-08-01T15:47:26;1.10;;;0.90;;
10801;SDS011;5453;50.852;7.102;2022-08-01T15:49:58;1.10;;;1.00;;
10801;SDS011;5453;50.852;7.102;2022-08-01T15:52:32;1.00;;;0.80;;
10801;SDS011;5453;50.852;7.102;2022-08-01T15:55:04;1.23;;;1.02;;
10801;SDS011;5453;50.852;7.102;2022-08-01T15:57:39;0.93;;;0.90;;
10801;SDS011;5453;50.852;7.102;2022-08-01T16:00:11;1.00;;;0.90;;
10801;SDS011;5453;50.852;7.102;2022-08-01T16:02:44;1.25;;;0.90;;
10801;SDS011;5453;50.852;7.102;2022-08-01T16:05:16;1.25;;;0.80;;